Time;durP1;ratioP1;P1;durP2;ratioP2;P2;SDS_P1;SDS_P2;PMS_P1;PMS_P2;Temp;Humidity;BMP_temperature;BMP_pressure;BME280_temperature;BME280_humidity;BME280_pressure;Samples;Min_cycle;Max_cycle;Signal;HPM_P1;HPM_P2
2022/08/04 00:00:07;;;;;;;10.20;3.35;;;21.00;99.90;;;;;;5072056;28;20055;-53
2022/08/04 00:03:07;;;;;;;9.20;3.60;;;21.00;99.90;;;;;;5070863;28;20071;-54
2022/08/04 00:05:35;;;;;;;10.02;3.88;;;21.00;99.90;;;;;;5071782;28;20059;-54
2022/08/04 00:08:19;;;;;;;9.38;3.45;;;20.90;99.90;;;;;;5071515;28;20067;-54
2022/08/04 00:10:49;;;;;;;10.23;2.97;;;20.90;99.90;;;;;;5071651;28;20044;-53
2022/08/04 00:13:20;;;;;;;9.07;3.22;;;20.90;99.90;;;;;;5071706;28;20044;-54
2022/08/04 00:15:53;;;;;;;9.57;3.15;;;20.90;99.90;;;;;;5071985;28;20649;-53
2022/08/04 00:18:26;;;;;;;9.52;3.22;;;20.80;99.90;;;;;;5071704;28;20033;-61
2022/08/04 00:20:57;;;;;;;8.93;2.88;;;20.80;99.90;;;;;;5055902;28;20033;-62
2022/08/04 00:23:25;;;;;;;7.85;2.90;;;20.80;99.90;;;;;;5051483;28;20045;-62
2022/08/04 00:25:52;;;;;;;9.75;3.38;;;20.80;99.90;;;;;;5051551;28;20041;-62
2022/08/04 00:28:18;;;;;;;8.57;3.10;;;20.80;99.90;;;;;;5051817;28;20094;-62
2022/08/04 00:30:44;;;;;;;9.90;3.30;;;20.70;99.90;;;;;;5051692;28;20048;-62
2022/08/04 00:33:11;;;;;;;8.40;3.10;;;20.80;99.90;;;;;;5051687;28;20033;-62
2022/08/04 00:35:38;;;;;;;12.05;4.00;;;20.80;99.90;;;;;;5051267;28;20077;-62
2022/08/04 00:38:05;;;;;;;10.80;3.13;;;20.80;99.90;;;;;;5058899;28;20123;-61
2022/08/04 00:40:46;;;;;;;9.55;3.45;;;20.80;99.90;;;;;;5070186;28;20052;-62
2022/08/04 00:43:22;;;;;;;9.43;3.22;;;20.70;99.90;;;;;;5071700;28;20119;-61
2022/08/04 00:46:08;;;;;;;7.90;3.15;;;20.70;99.90;;;;;;5071242;28;20036;-62
2022/08/04 00:49:21;;;;;;;8.95;3.20;;;20.60;99.90;;;;;;5071370;28;20048;-62
2022/08/04 00:52:21;;;;;;;10.00;3.58;;;20.70;99.90;;;;;;5067351;28;20049;-62
2022/08/04 00:55:03;;;;;;;9.82;3.30;;;20.70;99.90;;;;;;5070625;28;20106;-62
2022/08/04 00:57:58;;;;;;;13.57;4.57;;;20.60;99.90;;;;;;5071446;28;20472;-61
2022/08/04 01:00:24;;;;;;;9.50;3.35;;;20.60;99.90;;;;;;5071196;28;20045;-62
2022/08/04 01:02:50;;;;;;;10.73;4.03;;;20.60;99.90;;;;;;5071150;28;20492;-62
2022/08/04 01:05:24;;;;;;;7.22;3.35;;;20.50;99.90;;;;;;5070971;28;20438;-61
2022/08/04 01:08:38;;;;;;;9.30;3.65;;;20.50;99.90;;;;;;5072308;28;20051;-61
2022/08/04 01:11:30;;;;;;;13.00;3.92;;;20.50;99.90;;;;;;5065491;28;20048;-62
2022/08/04 01:13:58;;;;;;;9.35;2.95;;;20.50;99.90;;;;;;5074613;28;20050;-61
2022/08/04 01:16:25;;;;;;;9.88;3.63;;;20.50;99.90;;;;;;5074662;28;20397;-62
2022/08/04 01:18:54;;;;;;;10.88;4.05;;;20.50;99.90;;;;;;5074734;28;20040;-62
2022/08/04 01:21:28;;;;;;;8.70;3.88;;;20.40;99.90;;;;;;5054844;28;20040;-61
2022/08/04 01:24:25;;;;;;;11.50;4.15;;;20.40;99.90;;;;;;5054405;28;20037;-61
2022/08/04 01:27:15;;;;;;;9.55;3.72;;;20.50;99.90;;;;;;5054860;28;20033;-62
2022/08/04 01:29:48;;;;;;;14.10;3.90;;;20.40;99.90;;;;;;5054485;28;20041;-62
2022/08/04 01:32:30;;;;;;;12.35;4.43;;;20.40;99.90;;;;;;5054558;28;20111;-61
2022/08/04 01:35:12;;;;;;;;;;;20.40;99.90;;;;;;5054422;28;20520;-61
2022/08/04 01:37:53;;;;;;;11.75;3.95;;;20.40;99.90;;;;;;5089801;28;19963;-62
2022/08/04 01:40:21;;;;;;;10.80;4.00;;;20.40;99.90;;;;;;5074156;28;20144;-62
2022/08/04 01:42:51;;;;;;;11.93;4.80;;;20.30;99.90;;;;;;5074194;28;20589;-61
2022/08/04 01:45:17;;;;;;;9.10;4.28;;;20.30;99.90;;;;;;5073954;28;20475;-61
2022/08/04 01:47:50;;;;;;;11.57;4.40;;;20.30;99.90;;;;;;5074235;28;20048;-62
2022/08/04 01:50:15;;;;;;;10.60;5.15;;;20.30;99.90;;;;;;5074438;28;20094;-61
2022/08/04 01:52:43;;;;;;;13.18;4.47;;;20.30;99.90;;;;;;5074111;28;20032;-62
2022/08/04 01:55:14;;;;;;;11.25;4.90;;;20.30;99.90;;;;;;5074017;28;20049;-61
2022/08/04 01:57:49;;;;;;;10.55;5.07;;;20.30;99.90;;;;;;5073894;28;20358;-61
2022/08/04 02:00:20;;;;;;;12.93;5.95;;;20.30;99.90;;;;;;5073841;28;20036;-62
2022/08/04 02:02:46;;;;;;;11.18;5.30;;;20.20;99.90;;;;;;5073641;28;20083;-62
2022/08/04 02:05:17;;;;;;;12.23;5.22;;;20.10;99.90;;;;;;5073750;28;20511;-62
2022/08/04 02:08:11;;;;;;;13.45;6.07;;;20.20;99.90;;;;;;5073562;28;20044;-62
2022/08/04 02:11:14;;;;;;;15.40;6.07;;;20.20;99.90;;;;;;5073851;28;20046;-62
2022/08/04 02:14:05;;;;;;;12.30;5.55;;;20.20;99.90;;;;;;5066808;28;20063;-62
2022/08/04 02:16:48;;;;;;;10.35;5.32;;;20.20;99.90;;;;;;5073631;28;20047;-62
2022/08/04 02:19:45;;;;;;;14.77;5.90;;;20.20;99.90;;;;;;5070529;28;20049;-62
2022/08/04 02:22:17;;;;;;;11.40;5.70;;;20.20;99.90;;;;;;5034270;28;20053;-61
2022/08/04 02:24:49;;;;;;;12.13;5.13;;;20.30;99.90;;;;;;5053102;28;20079;-61
2022/08/04 02:27:19;;;;;;;14.45;6.15;;;20.30;99.90;;;;;;5053667;28;20028;-61
2022/08/04 02:29:53;;;;;;;13.30;5.88;;;20.20;99.90;;;;;;5053816;28;20110;-62
2022/08/04 02:32:40;;;;;;;11.15;5.57;;;20.30;99.90;;;;;;5054221;28;20068;-62
2022/08/04 02:35:11;;;;;;;12.70;6.40;;;20.20;99.90;;;;;;5053173;28;20060;-62
2022/08/04 02:37:40;;;;;;;13.23;5.80;;;20.30;99.90;;;;;;5057275;28;20052;-62
2022/08/04 02:40:06;;;;;;;16.70;7.03;;;20.20;99.90;;;;;;5073152;28;20048;-62
2022/08/04 02:42:32;;;;;;;14.10;6.50;;;20.20;99.90;;;;;;5073112;28;20033;-62
2022/08/04 02:45:00;;;;;;;13.20;6.30;;;20.20;99.90;;;;;;5072839;28;20135;-64
2022/08/04 02:47:27;;;;;;;13.90;6.47;;;20.20;99.90;;;;;;5072716;28;20036;-62
2022/08/04 02:49:57;;;;;;;13.35;6.30;;;20.30;99.90;;;;;;5072734;28;20041;-62
2022/08/04 02:52:23;;;;;;;14.23;6.32;;;20.30;99.90;;;;;;5073074;28;20460;-61
2022/08/04 02:54:54;;;;;;;12.80;6.25;;;20.30;99.90;;;;;;5072867;28;20120;-62
2022/08/04 02:57:25;;;;;;;16.63;6.57;;;20.30;99.90;;;;;;5072967;28;20448;-61
2022/08/04 03:00:06;;;;;;;11.40;5.78;;;20.30;99.90;;;;;;5072539;28;20080;-62
2022/08/04 03:03:04;;;;;;;14.77;6.93;;;20.40;99.90;;;;;;5073019;28;20048;-62
2022/08/04 03:05:38;;;;;;;13.27;6.00;;;20.30;99.90;;;;;;5069584;28;20647;-62
2022/08/04 03:08:45;;;;;;;13.65;6.57;;;20.30;99.90;;;;;;5072555;28;20120;-62
2022/08/04 03:11:31;;;;;;;14.48;6.30;;;20.30;99.90;;;;;;5072640;28;20047;-62
2022/08/04 03:14:31;;;;;;;14.15;6.32;;;20.40;99.90;;;;;;5050887;28;20409;-62
2022/08/04 03:17:24;;;;;;;15.23;6.15;;;20.40;99.90;;;;;;5072470;28;20044;-62
2022/08/04 03:20:32;;;;;;;13.77;6.43;;;20.40;99.90;;;;;;5065069;28;20049;-61
2022/08/04 03:23:33;;;;;;;13.27;7.13;;;20.40;99.90;;;;;;5041527;28;20053;-61
2022/08/04 03:26:33;;;;;;;13.90;6.32;;;20.40;99.90;;;;;;5052562;28;20400;-61
2022/08/04 03:29:01;;;;;;;15.32;6.57;;;20.40;99.90;;;;;;5052292;28;20490;-61
2022/08/04 03:32:04;;;;;;;13.32;6.10;;;20.30;99.90;;;;;;5051928;28;20472;-61
2022/08/04 03:34:45;;;;;;;11.68;7.15;;;20.30;99.90;;;;;;5052077;28;20092;-62
2022/08/04 03:37:37;;;;;;;12.50;6.15;;;20.30;99.90;;;;;;5052319;28;20048;-61
2022/08/04 03:40:25;;;;;;;14.05;6.18;;;20.30;99.90;;;;;;5072281;28;20115;-62
2022/08/04 03:43:09;;;;;;;13.23;6.55;;;20.30;99.90;;;;;;5072034;28;20040;-62
2022/08/04 03:46:03;;;;;;;14.70;6.55;;;20.30;99.90;;;;;;5071953;28;20052;-61
2022/08/04 03:48:53;;;;;;;13.20;5.72;;;20.20;99.90;;;;;;5071898;28;20052;-60
2022/08/04 03:54:50;;;;;;;14.02;6.13;;;20.20;99.90;;;;;;5071635;28;20048;-61
2022/08/04 03:57:34;;;;;;;14.23;6.07;;;20.20;99.90;;;;;;5072042;28;20042;-61
2022/08/04 04:00:08;;;;;;;14.30;6.72;;;20.30;99.90;;;;;;5071984;28;20040;-61
2022/08/04 04:03:11;;;;;;;14.27;6.60;;;20.30;99.90;;;;;;5071678;28;20033;-61
2022/08/04 04:06:01;;;;;;;12.77;6.20;;;20.40;99.90;;;;;;5071843;28;20048;-61
2022/08/04 04:09:00;;;;;;;11.63;5.68;;;20.50;99.90;;;;;;5071846;28;20032;-62
2022/08/04 04:11:46;;;;;;;13.88;5.80;;;20.40;99.90;;;;;;5071944;28;20483;-62
2022/08/04 04:14:29;;;;;;;14.93;6.22;;;20.50;99.90;;;;;;5071984;28;20045;-62
2022/08/04 04:17:04;;;;;;;12.65;5.63;;;20.50;99.90;;;;;;5071656;28;20044;-61
2022/08/04 04:19:53;;;;;;;12.07;5.90;;;20.50;99.90;;;;;;5067324;28;20482;-62
2022/08/04 04:22:18;;;;;;;13.25;5.75;;;20.50;99.90;;;;;;5048162;28;20049;-61
2022/08/04 04:24:50;;;;;;;14.82;5.82;;;20.60;99.90;;;;;;5051363;28;20033;-62
2022/08/04 04:27:39;;;;;;;15.55;5.85;;;20.50;99.90;;;;;;5051442;28;20531;-62
2022/08/04 04:30:36;;;;;;;12.27;5.70;;;20.60;99.90;;;;;;5051427;28;20504;-61
2022/08/04 04:33:31;;;;;;;12.80;6.05;;;20.60;99.90;;;;;;5051381;28;20048;-60
2022/08/04 04:36:11;;;;;;;15.02;5.85;;;20.60;99.90;;;;;;5051023;28;20075;-61
2022/08/04 04:38:40;;;;;;;12.38;5.63;;;20.60;99.90;;;;;;5063762;28;20127;-62
2022/08/04 04:41:18;;;;;;;12.70;5.82;;;20.60;99.90;;;;;;5071391;28;20056;-62
2022/08/04 04:44:13;;;;;;;12.55;5.38;;;20.70;99.90;;;;;;5073730;28;20040;-61
2022/08/04 04:46:49;;;;;;;14.98;5.88;;;20.70;99.90;;;;;;5075333;28;20064;-62
2022/08/04 04:49:36;;;;;;;13.32;6.10;;;20.70;99.90;;;;;;5075308;28;20041;-62
2022/08/04 04:52:04;;;;;;;15.90;5.82;;;20.70;99.90;;;;;;5075240;28;20040;-62
2022/08/04 04:54:38;;;;;;;13.60;5.53;;;20.70;99.90;;;;;;5074833;28;20072;-62
2022/08/04 04:57:13;;;;;;;12.95;5.55;;;20.70;99.90;;;;;;5075091;28;20388;-62
2022/08/04 05:00:03;;;;;;;17.48;5.78;;;20.70;99.90;;;;;;5075222;28;20423;-62
2022/08/04 05:02:28;;;;;;;11.43;5.90;;;20.80;99.90;;;;;;5075060;28;20055;-62
2022/08/04 05:04:57;;;;;;;14.50;6.03;;;20.70;99.90;;;;;;5074587;28;20053;-61
2022/08/04 05:07:57;;;;;;;15.68;5.53;;;20.70;99.90;;;;;;5073428;28;20055;-62
2022/08/04 05:10:49;;;;;;;12.40;5.80;;;20.70;99.90;;;;;;5074725;28;20047;-62
2022/08/04 05:13:40;;;;;;;14.10;6.45;;;20.80;99.90;;;;;;5075372;28;20051;-62
2022/08/04 05:16:40;;;;;;;10.48;6.40;;;20.80;99.90;;;;;;5074738;28;20046;-62
2022/08/04 05:19:32;;;;;;;14.73;6.93;;;20.90;99.90;;;;;;5072051;28;20051;-62
2022/08/04 05:22:24;;;;;;;16.38;7.05;;;20.80;99.90;;;;;;5054439;28;20135;-62
2022/08/04 05:24:59;;;;;;;15.63;6.80;;;20.80;99.90;;;;;;5054484;28;20048;-63
2022/08/04 05:27:35;;;;;;;12.63;6.43;;;20.90;99.90;;;;;;5054633;28;20500;-62
2022/08/04 05:30:03;;;;;;;15.57;7.15;;;21.00;99.90;;;;;;5054428;28;20390;-62
2022/08/04 05:32:42;;;;;;;17.48;7.70;;;21.10;99.90;;;;;;5054622;28;20139;-62
2022/08/04 05:35:19;;;;;;;12.70;6.75;;;21.10;99.90;;;;;;5054264;28;20068;-62
2022/08/04 05:37:47;;;;;;;11.93;7.03;;;21.10;99.90;;;;;;5059206;28;20036;-61
2022/08/04 05:40:16;;;;;;;15.50;7.45;;;21.20;99.90;;;;;;5073978;28;20047;-62
2022/08/04 05:42:42;;;;;;;15.98;6.63;;;21.30;99.90;;;;;;5074276;28;20473;-62
2022/08/04 05:45:09;;;;;;;13.88;6.30;;;21.30;99.90;;;;;;5074184;28;20504;-62
2022/08/04 05:47:36;;;;;;;18.15;7.15;;;21.30;99.90;;;;;;5073183;28;20041;-62
2022/08/04 05:50:03;;;;;;;13.75;6.88;;;21.20;99.90;;;;;;5074248;28;20032;-62
2022/08/04 05:52:31;;;;;;;12.68;7.97;;;21.30;99.90;;;;;;5074372;28;20052;-62
2022/08/04 05:54:58;;;;;;;13.93;6.55;;;21.30;99.90;;;;;;5073064;28;20098;-62
2022/08/04 05:57:25;;;;;;;15.20;7.07;;;21.50;99.90;;;;;;5074205;28;20121;-62
2022/08/04 05:59:52;;;;;;;15.73;7.65;;;21.60;99.90;;;;;;5074045;28;20066;-62
2022/08/04 06:02:19;;;;;;;15.43;6.40;;;21.70;99.90;;;;;;5074048;28;20435;-62
2022/08/04 06:04:49;;;;;;;16.48;7.57;;;21.80;99.90;;;;;;5073809;28;20044;-62
2022/08/04 06:07:15;;;;;;;16.67;7.63;;;22.00;99.90;;;;;;5074006;28;20102;-62
2022/08/04 06:09:41;;;;;;;12.27;6.82;;;22.20;99.90;;;;;;5073618;28;20040;-61
2022/08/04 06:12:13;;;;;;;17.00;7.32;;;22.20;99.90;;;;;;5073360;28;20116;-61
2022/08/04 06:14:42;;;;;;;14.98;7.18;;;22.30;99.90;;;;;;5072863;28;20075;-62
2022/08/04 06:17:12;;;;;;;13.80;7.20;;;22.40;99.90;;;;;;5073071;28;20469;-62
2022/08/04 06:19:40;;;;;;;14.48;7.38;;;22.40;99.90;;;;;;5067394;28;20152;-62
2022/08/04 06:22:08;;;;;;;14.23;6.63;;;22.50;99.90;;;;;;5052929;28;20086;-62
2022/08/04 06:24:36;;;;;;;11.57;6.43;;;22.60;99.90;;;;;;5052412;28;20045;-62
2022/08/04 06:27:04;;;;;;;11.90;6.88;;;22.50;99.90;;;;;;5052868;28;20049;-62
2022/08/04 06:29:40;;;;;;;12.93;6.75;;;22.60;99.90;;;;;;5053022;28;20095;-63
2022/08/04 06:32:13;;;;;;;12.52;7.10;;;22.60;99.90;;;;;;5052821;28;20041;-62
2022/08/04 06:34:41;;;;;;;12.82;7.03;;;22.60;99.90;;;;;;5052620;28;20092;-62
2022/08/04 06:37:09;;;;;;;12.90;6.97;;;22.70;99.90;;;;;;5052667;28;20578;-62
2022/08/04 06:39:35;;;;;;;13.15;6.05;;;22.60;99.90;;;;;;5072615;28;20036;-63
2022/08/04 06:42:02;;;;;;;13.32;6.00;;;22.80;99.90;;;;;;5072567;28;20036;-63
2022/08/04 06:44:29;;;;;;;10.80;5.97;;;22.80;99.90;;;;;;5072197;28;20049;-62
2022/08/04 06:46:56;;;;;;;16.88;6.32;;;22.90;99.90;;;;;;5072461;28;20047;-63
2022/08/04 06:49:25;;;;;;;13.18;6.43;;;22.90;99.90;;;;;;5072250;28;20083;-63
2022/08/04 06:51:52;;;;;;;15.45;6.47;;;22.90;99.90;;;;;;5072441;28;20044;-62
2022/08/04 06:54:18;;;;;;;14.48;5.93;;;22.90;99.90;;;;;;5072067;28;20175;-62
2022/08/04 06:56:45;;;;;;;12.77;5.85;;;23.00;99.90;;;;;;5070856;28;20551;-63
2022/08/04 06:59:15;;;;;;;12.73;6.32;;;23.00;99.90;;;;;;5072244;28;20051;-63
2022/08/04 07:01:42;;;;;;;15.70;7.05;;;23.10;99.90;;;;;;5071966;28;20052;-63
2022/08/04 07:04:09;;;;;;;11.93;5.93;;;23.00;99.90;;;;;;5072178;28;20048;-63
2022/08/04 07:06:35;;;;;;;12.50;5.75;;;23.10;99.90;;;;;;5071687;28;20393;-62
2022/08/04 07:09:01;;;;;;;13.43;5.78;;;23.00;99.90;;;;;;5072058;28;20786;-63
2022/08/04 07:11:27;;;;;;;11.65;6.38;;;23.20;99.90;;;;;;5071735;28;20036;-63
2022/08/04 07:13:54;;;;;;;13.27;6.38;;;23.20;99.90;;;;;;5071785;28;20063;-63
2022/08/04 07:16:20;;;;;;;11.50;5.80;;;23.20;99.90;;;;;;5070255;28;20046;-63
2022/08/04 07:18:46;;;;;;;12.68;6.43;;;23.30;99.90;;;;;;5071849;28;20106;-63
2022/08/04 07:21:20;;;;;;;11.38;5.63;;;23.30;99.90;;;;;;5053236;28;20045;-63
2022/08/04 07:23:46;;;;;;;11.70;5.93;;;23.30;99.90;;;;;;5051112;28;20484;-63
2022/08/04 07:26:14;;;;;;;11.18;6.05;;;23.30;99.90;;;;;;5051089;28;20497;-63
2022/08/04 07:28:40;;;;;;;13.70;7.32;;;23.30;99.90;;;;;;5051393;28;20627;-63
2022/08/04 07:31:09;;;;;;;15.80;8.55;;;23.20;99.90;;;;;;5066612;28;20040;-63
2022/08/04 07:33:35;;;;;;;17.27;8.70;;;23.10;99.90;;;;;;5050760;28;20452;-62
2022/08/04 07:36:01;;;;;;;18.25;10.18;;;23.00;99.90;;;;;;5050456;28;20057;-63
2022/08/04 07:38:27;;;;;;;16.65;9.27;;;23.00;99.90;;;;;;5061631;28;20041;-62
2022/08/04 07:40:54;;;;;;;15.50;9.70;;;23.00;99.90;;;;;;5071202;28;20094;-63
2022/08/04 07:43:20;;;;;;;18.70;8.77;;;23.00;99.90;;;;;;5070902;28;20040;-63
2022/08/04 07:45:45;;;;;;;14.75;9.65;;;23.00;99.90;;;;;;5069787;28;20457;-62
2022/08/04 07:48:11;;;;;;;18.48;10.02;;;23.00;99.90;;;;;;5071210;28;20025;-60
2022/08/04 07:50:40;;;;;;;14.27;9.75;;;23.00;99.90;;;;;;5071050;28;20044;-63
2022/08/04 07:53:07;;;;;;;17.13;9.48;;;23.10;99.90;;;;;;5071570;28;20505;-63
2022/08/04 07:55:32;;;;;;;13.48;9.18;;;23.30;99.90;;;;;;5071649;28;20120;-63
2022/08/04 07:57:59;;;;;;;14.90;8.57;;;23.40;99.90;;;;;;5070573;28;20521;-62
2022/08/04 08:00:25;;;;;;;14.98;8.60;;;23.30;99.90;;;;;;5070443;28;20032;-62
2022/08/04 08:02:53;;;;;;;16.13;7.80;;;23.30;99.90;;;;;;5070287;28;20041;-63
2022/08/04 08:05:20;;;;;;;13.75;8.50;;;23.30;99.90;;;;;;5068915;28;20049;-63
2022/08/04 08:07:49;;;;;;;14.50;8.07;;;23.40;99.90;;;;;;5070316;28;20051;-62
2022/08/04 08:10:16;;;;;;;16.00;8.02;;;23.70;99.90;;;;;;5070503;28;20048;-63
2022/08/04 08:12:43;;;;;;;14.00;7.72;;;23.80;99.90;;;;;;5070551;28;20182;-62
2022/08/04 08:15:13;;;;;;;13.32;7.13;;;23.80;99.90;;;;;;5070762;28;20048;-63
2022/08/04 08:17:39;;;;;;;16.77;7.80;;;23.70;99.90;;;;;;5071784;28;20146;-63
2022/08/04 08:20:06;;;;;;;13.32;6.97;;;23.80;99.90;;;;;;5065599;28;20049;-63
2022/08/04 08:22:32;;;;;;;13.93;7.68;;;23.80;99.90;;;;;;5054916;28;20521;-62
2022/08/04 08:24:58;;;;;;;13.77;7.68;;;23.80;99.90;;;;;;5054604;28;20120;-63
2022/08/04 08:27:25;;;;;;;13.70;7.65;;;23.80;99.90;;;;;;5054584;28;20037;-63
2022/08/04 08:29:51;;;;;;;13.95;7.68;;;24.00;99.90;;;;;;5054466;28;20072;-63
2022/08/04 08:32:17;;;;;;;14.30;7.47;;;24.00;99.90;;;;;;5054525;28;20572;-62
2022/08/04 08:34:44;;;;;;;14.45;7.88;;;24.00;99.90;;;;;;5052556;28;20056;-62
2022/08/04 08:37:33;;;;;;;14.15;7.68;;;23.90;99.90;;;;;;5054072;28;20049;-62
2022/08/04 08:40:17;;;;;;;13.52;7.43;;;23.80;99.90;;;;;;5074655;28;20102;-63
2022/08/04 08:42:58;;;;;;;13.57;8.35;;;24.00;99.90;;;;;;5074324;28;20048;-63
2022/08/04 08:46:17;;;;;;;14.02;8.52;;;24.00;99.90;;;;;;5074400;28;20106;-63
2022/08/04 08:48:58;;;;;;;13.77;7.65;;;24.20;99.90;;;;;;5031719;28;20556;-63
2022/08/04 08:51:35;;;;;;;10.90;5.80;;;24.40;99.90;;;;;;5031786;28;20076;-63
2022/08/04 08:54:20;;;;;;;11.75;4.80;;;24.50;99.90;;;;;;5063437;28;20060;-63
2022/08/04 08:56:57;;;;;;;11.90;4.68;;;24.60;99.90;;;;;;5074152;28;20465;-62
2022/08/04 08:59:46;;;;;;;8.88;3.60;;;24.70;99.90;;;;;;5074325;28;20080;-63
2022/08/04 09:02:23;;;;;;;11.48;4.47;;;24.80;99.90;;;;;;5074018;28;20044;-63
2022/08/04 09:05:07;;;;;;;10.68;4.65;;;24.70;99.90;;;;;;5074162;28;20044;-63
2022/08/04 09:07:47;;;;;;;10.85;4.25;;;24.60;99.90;;;;;;5074480;28;20036;-63
2022/08/04 09:10:40;;;;;;;9.60;4.10;;;24.70;99.90;;;;;;5074083;28;20049;-63
2022/08/04 09:13:44;;;;;;;7.45;3.42;;;24.80;99.90;;;;;;5074003;28;20036;-63
2022/08/04 09:16:48;;;;;;;7.15;3.35;;;24.90;99.90;;;;;;5073914;28;20123;-63
2022/08/04 09:19:13;;;;;;;8.23;3.75;;;24.80;99.90;;;;;;5071716;28;20090;-63
2022/08/04 09:21:50;;;;;;;8.00;3.15;;;24.90;99.90;;;;;;5054204;28;20051;-63
2022/08/04 09:24:45;;;;;;;9.65;3.20;;;25.10;99.90;;;;;;5051442;28;20051;-62
2022/08/04 09:27:39;;;;;;;7.55;3.10;;;25.40;99.90;;;;;;5052756;28;20041;-62
2022/08/04 09:30:07;;;;;;;9.95;3.10;;;25.20;99.90;;;;;;5035586;28;20041;-64
2022/08/04 09:33:06;;;;;;;8.88;3.58;;;25.30;99.90;;;;;;5052756;28;20052;-62
2022/08/04 09:35:43;;;;;;;8.60;3.17;;;25.40;99.90;;;;;;5052623;28;20064;-63
2022/08/04 09:38:28;;;;;;;10.20;3.65;;;25.30;99.90;;;;;;5062466;28;20072;-62
2022/08/04 09:41:17;;;;;;;8.88;3.40;;;25.40;99.90;;;;;;5074225;28;20409;-62
2022/08/04 09:43:52;;;;;;;8.13;3.22;;;25.60;99.90;;;;;;5074179;28;20392;-61
2022/08/04 09:46:22;;;;;;;7.65;3.38;;;25.70;99.90;;;;;;5074145;28;20032;-63
2022/08/04 09:49:32;;;;;;;10.02;2.97;;;25.80;99.90;;;;;;5074361;28;20119;-62
2022/08/04 09:52:22;;;;;;;7.85;2.58;;;25.90;99.90;;;;;;5031507;28;20042;-62
2022/08/04 09:55:26;;;;;;;8.23;2.55;;;26.00;99.90;;;;;;5074269;28;20045;-63
2022/08/04 09:58:22;;;;;;;6.85;2.15;;;26.10;99.90;;;;;;5073540;28;20519;-63
2022/08/04 10:01:00;;;;;;;9.57;2.28;;;26.10;99.90;;;;;;5074063;28;20044;-63
2022/08/04 10:03:32;;;;;;;9.13;2.50;;;25.90;99.90;;;;;;5072433;28;20079;-63
2022/08/04 10:06:35;;;;;;;10.40;2.65;;;25.80;99.90;;;;;;5073668;28;20524;-62
2022/08/04 10:09:24;;;;;;;9.32;2.55;;;25.80;99.90;;;;;;5073814;28;20098;-62
2022/08/04 10:11:56;;;;;;;8.05;2.40;;;26.00;99.90;;;;;;5073926;28;20033;-62
2022/08/04 10:15:00;;;;;;;9.68;2.22;;;26.30;99.90;;;;;;5073802;28;20045;-63
2022/08/04 10:17:53;;;;;;;11.43;3.17;;;26.50;99.90;;;;;;5073284;28;20508;-62
2022/08/04 10:20:30;;;;;;;7.40;2.13;;;26.60;99.90;;;;;;5062395;28;20098;-63
2022/08/04 10:23:11;;;;;;;9.32;2.75;;;26.40;99.90;;;;;;5053342;28;20491;-62
2022/08/04 10:26:02;;;;;;;8.32;2.58;;;26.30;99.90;;;;;;5053350;28;20088;-61
2022/08/04 10:28:30;;;;;;;13.68;2.72;;;26.40;99.90;;;;;;5053209;28;20049;-63
2022/08/04 10:31:05;;;;;;;15.65;2.90;;;26.60;99.90;;;;;;5053262;28;20087;-63
2022/08/04 10:33:39;;;;;;;8.35;1.85;;;26.50;99.90;;;;;;5052777;28;20048;-63
2022/08/04 10:36:16;;;;;;;9.55;2.20;;;26.50;99.90;;;;;;5052966;28;20064;-64
2022/08/04 10:39:23;;;;;;;8.38;3.13;;;26.50;99.90;;;;;;5065779;28;20067;-64
2022/08/04 10:42:02;;;;;;;9.95;2.97;;;26.50;99.90;;;;;;5029855;28;20149;-64
2022/08/04 10:45:01;;;;;;;7.97;2.28;;;26.70;99.90;;;;;;5030846;28;20144;-63
2022/08/04 10:47:36;;;;;;;5.85;2.20;;;26.50;99.90;;;;;;5063776;28;20055;-63
2022/08/04 10:50:05;;;;;;;7.75;2.40;;;26.60;99.90;;;;;;5073006;28;20070;-64
2022/08/04 10:52:37;;;;;;;6.57;1.70;;;26.70;99.90;;;;;;5071845;28;20047;-63
2022/08/04 10:55:12;;;;;;;5.78;1.98;;;26.60;99.90;;;;;;5072943;28;20115;-64
2022/08/04 10:58:04;;;;;;;5.57;1.60;;;26.40;99.90;;;;;;5073244;28;20085;-63
2022/08/04 11:00:32;;;;;;;7.43;2.30;;;26.50;99.90;;;;;;5072947;28;20036;-63
2022/08/04 11:03:07;;;;;;;7.07;1.90;;;26.40;99.90;;;;;;5072785;28;20044;-64
2022/08/04 11:06:04;;;;;;;5.18;1.80;;;26.30;99.90;;;;;;5072629;28;20055;-61
2022/08/04 11:08:35;;;;;;;5.38;1.80;;;26.20;99.90;;;;;;5072908;28;20044;-61
2022/08/04 11:11:25;;;;;;;4.90;1.70;;;26.20;99.90;;;;;;5072725;28;20039;-61
2022/08/04 11:13:55;;;;;;;7.30;1.80;;;26.40;99.90;;;;;;5071551;28;20049;-62
2022/08/04 11:16:56;;;;;;;5.53;1.70;;;26.30;99.90;;;;;;5072682;28;20039;-61
2022/08/04 11:19:45;;;;;;;6.72;1.52;;;26.30;99.90;;;;;;5069103;28;20037;-62
2022/08/04 11:22:23;;;;;;;4.90;1.60;;;26.40;99.90;;;;;;5067869;28;20485;-62
2022/08/04 11:25:21;;;;;;;7.05;1.83;;;26.20;99.90;;;;;;5052486;28;20512;-62
2022/08/04 11:28:17;;;;;;;5.22;1.60;;;26.00;99.90;;;;;;5067585;28;20037;-62
2022/08/04 11:30:52;;;;;;;5.97;1.90;;;26.00;99.90;;;;;;5050819;28;20485;-62
2022/08/04 11:33:34;;;;;;;6.22;2.10;;;25.80;99.90;;;;;;5052120;28;20055;-62
2022/08/04 11:36:29;;;;;;;4.45;1.63;;;25.70;99.90;;;;;;5052227;28;20057;-62
2022/08/04 11:39:28;;;;;;;3.15;1.23;;;25.90;99.90;;;;;;5066674;28;20060;-61
2022/08/04 11:41:59;;;;;;;3.95;1.23;;;25.80;99.90;;;;;;5070184;28;20052;-62
2022/08/04 11:44:44;;;;;;;3.88;1.38;;;26.00;99.90;;;;;;5072050;28;20045;-63
2022/08/04 11:47:26;;;;;;;3.80;1.35;;;25.80;99.90;;;;;;5071916;28;20055;-62
2022/08/04 11:50:04;;;;;;;3.88;1.10;;;25.70;99.90;;;;;;5072158;28;20430;-62
2022/08/04 11:52:32;;;;;;;4.82;1.20;;;25.60;99.90;;;;;;5070438;28;20040;-62
2022/08/04 11:55:02;;;;;;;4.55;1.30;;;25.40;99.90;;;;;;5071803;28;20515;-62
2022/08/04 11:57:28;;;;;;;4.25;1.02;;;25.50;99.90;;;;;;5071931;28;20047;-62
2022/08/04 11:59:55;;;;;;;5.95;1.15;;;25.50;99.90;;;;;;5072074;28;20182;-63
2022/08/04 12:02:43;;;;;;;4.80;1.30;;;25.40;99.90;;;;;;5071930;28;20477;-63
2022/08/04 12:05:09;;;;;;;2.95;1.02;;;25.40;99.90;;;;;;5072041;28;20049;-63
2022/08/04 12:07:57;;;;;;;3.50;1.27;;;25.30;99.90;;;;;;5071888;28;20036;-62
2022/08/04 12:10:39;;;;;;;6.22;1.40;;;25.40;99.90;;;;;;5071761;28;20481;-62
2022/08/04 12:13:40;;;;;;;6.68;1.30;;;25.30;99.90;;;;;;5071695;28;20036;-62
2022/08/04 12:16:13;;;;;;;4.40;1.20;;;25.40;99.90;;;;;;5071556;28;20053;-61
2022/08/04 12:18:51;;;;;;;5.78;1.45;;;25.20;99.90;;;;;;5071897;28;20082;-62
2022/08/04 12:21:32;;;;;;;3.55;1.20;;;25.10;99.90;;;;;;5052333;28;20037;-62
2022/08/04 12:24:02;;;;;;;4.22;1.05;;;25.30;99.90;;;;;;5051445;28;20132;-62
2022/08/04 12:26:35;;;;;;;5.10;1.10;;;25.20;99.90;;;;;;5051441;28;20064;-62
2022/08/04 12:29:04;;;;;;;2.78;1.10;;;25.20;99.90;;;;;;5051746;28;20052;-62
2022/08/04 12:31:55;;;;;;;4.03;1.17;;;25.10;99.90;;;;;;5051581;28;20037;-62
2022/08/04 12:34:24;;;;;;;3.83;1.30;;;25.20;99.90;;;;;;5051411;28;20041;-62
2022/08/04 12:37:01;;;;;;;3.63;1.13;;;25.10;99.90;;;;;;5051410;28;20049;-62
2022/08/04 12:39:28;;;;;;;4.43;1.23;;;25.10;99.90;;;;;;5070612;28;20051;-61
2022/08/04 12:42:10;;;;;;;3.28;1.23;;;25.10;99.90;;;;;;5071718;28;20052;-62
2022/08/04 12:44:39;;;;;;;4.97;1.33;;;25.20;99.90;;;;;;5071373;28;20037;-62
2022/08/04 12:47:11;;;;;;;4.47;1.33;;;25.30;99.90;;;;;;5071632;28;20445;-62
2022/08/04 12:49:42;;;;;;;5.78;1.50;;;25.50;99.90;;;;;;5071529;28;20547;-62
2022/08/04 12:52:10;;;;;;;5.20;1.50;;;25.80;99.90;;;;;;5070551;28;20036;-62
2022/08/04 12:54:38;;;;;;;4.97;1.30;;;25.80;99.90;;;;;;5071573;28;20051;-60
2022/08/04 12:57:06;;;;;;;5.45;1.67;;;25.80;99.90;;;;;;5071512;28;20052;-61
2022/08/04 12:59:42;;;;;;;5.40;1.60;;;26.10;99.90;;;;;;5071463;28;20492;-61
2022/08/04 13:02:29;;;;;;;4.65;1.50;;;25.80;99.90;;;;;;5071342;28;20115;-62
2022/08/04 13:05:01;;;;;;;5.15;1.38;;;25.80;99.90;;;;;;5072786;28;20064;-62
2022/08/04 13:07:39;;;;;;;6.97;1.70;;;26.20;99.90;;;;;;5075043;28;20484;-62
2022/08/04 13:10:11;;;;;;;6.13;1.50;;;26.10;99.90;;;;;;5074875;28;20123;-62
2022/08/04 13:12:38;;;;;;;8.00;1.73;;;25.80;99.90;;;;;;5074814;28;20033;-61
2022/08/04 13:15:23;;;;;;;4.97;1.65;;;25.50;99.90;;;;;;5074935;28;20377;-62
2022/08/04 13:18:03;;;;;;;5.60;1.77;;;25.60;99.90;;;;;;5073461;28;20037;-62
2022/08/04 13:20:35;;;;;;;6.32;1.67;;;25.70;99.90;;;;;;5062235;28;20106;-62
2022/08/04 13:23:09;;;;;;;4.38;1.23;;;25.60;99.90;;;;;;5054683;28;20059;-62
2022/08/04 13:25:44;;;;;;;5.13;1.38;;;25.60;99.90;;;;;;5055007;28;20100;-61
2022/08/04 13:28:19;;;;;;;5.00;1.42;;;25.70;99.90;;;;;;5054830;28;20033;-62
2022/08/04 13:30:46;;;;;;;4.47;1.35;;;25.70;99.90;;;;;;5054523;28;20485;-62
2022/08/04 13:33:14;;;;;;;6.03;1.40;;;25.40;99.90;;;;;;5054379;28;20037;-62
2022/08/04 13:35:47;;;;;;;5.43;1.60;;;25.80;99.90;;;;;;5069579;28;20052;-61